createdAt,value
2023-01-17T00:02:09.579Z,99.90
2023-01-17T00:04:56.130Z,99.90
2023-01-17T00:07:43.103Z,99.90
2023-01-17T00:10:19.186Z,99.90
2023-01-17T00:12:48.423Z,99.90
2023-01-17T00:15:17.080Z,99.90
2023-01-17T00:17:44.940Z,99.90
2023-01-17T00:20:34.901Z,99.90
2023-01-17T00:23:24.292Z,99.90
2023-01-17T00:26:04.425Z,99.90
2023-01-17T00:28:33.755Z,99.90
2023-01-17T00:31:02.029Z,99.90
2023-01-17T00:33:29.980Z,99.90
2023-01-17T00:35:58.983Z,99.90
2023-01-17T00:38:27.865Z,99.90
2023-01-17T00:41:01.300Z,99.90
2023-01-17T00:43:47.937Z,99.90
2023-01-17T00:46:34.742Z,99.90
2023-01-17T00:49:21.614Z,99.90
2023-01-17T00:52:07.886Z,99.90
2023-01-17T00:54:54.838Z,99.90
2023-01-17T00:57:41.476Z,99.90
2023-01-17T01:00:28.535Z,99.90
2023-01-17T01:03:15.074Z,99.90
2023-01-17T01:06:01.572Z,99.90
2023-01-17T01:08:48.487Z,99.90
2023-01-17T01:11:37.001Z,99.90
2023-01-17T01:14:23.814Z,99.90
2023-01-17T01:17:09.997Z,99.90
2023-01-17T01:19:56.664Z,99.90
2023-01-17T01:22:43.368Z,99.90
2023-01-17T01:25:29.980Z,99.90
2023-01-17T01:28:26.645Z,99.90
2023-01-17T01:31:13.313Z,99.90
2023-01-17T01:33:41.350Z,99.90
2023-01-17T01:36:09.910Z,99.90
2023-01-17T01:38:38.290Z,99.90
2023-01-17T01:41:06.767Z,99.90
2023-01-17T01:43:48.530Z,99.90
2023-01-17T01:46:18.662Z,99.90
2023-01-17T01:48:52.098Z,99.90
2023-01-17T01:51:22.591Z,99.90
2023-01-17T01:53:52.416Z,99.90
2023-01-17T01:56:23.505Z,99.90
2023-01-17T01:58:52.718Z,99.90
2023-01-17T02:01:20.718Z,99.90
2023-01-17T02:03:49.349Z,99.90
2023-01-17T02:06:24.279Z,99.90
2023-01-17T02:08:52.335Z,99.90
2023-01-17T02:11:20.496Z,99.90
2023-01-17T02:13:48.353Z,99.90
2023-01-17T02:16:16.317Z,99.90
2023-01-17T02:19:02.981Z,99.90
2023-01-17T02:21:38.205Z,99.90
2023-01-17T02:24:06.389Z,99.90
2023-01-17T02:26:51.292Z,99.90
2023-01-17T02:29:45.923Z,99.90
2023-01-17T02:32:22.863Z,99.90
2023-01-17T02:34:54.255Z,99.90
2023-01-17T02:37:25.221Z,99.90
2023-01-17T02:39:56.072Z,99.90
2023-01-17T02:42:28.427Z,99.90
2023-01-17T02:44:56.422Z,99.90
2023-01-17T02:47:24.370Z,99.90
2023-01-17T02:49:57.417Z,99.90
2023-01-17T02:52:44.140Z,99.90
2023-01-17T02:55:18.069Z,99.90
2023-01-17T02:58:01.204Z,99.90
2023-01-17T03:00:44.488Z,99.90
2023-01-17T03:03:23.355Z,99.90
2023-01-17T03:05:54.534Z,99.90
2023-01-17T03:08:22.985Z,99.90
2023-01-17T03:10:50.983Z,99.90
2023-01-17T03:13:18.943Z,99.90
2023-01-17T03:15:47.068Z,99.90
2023-01-17T03:18:15.904Z,99.90
2023-01-17T03:20:43.805Z,99.90
2023-01-17T03:23:11.841Z,99.90
2023-01-17T03:25:39.777Z,99.90
2023-01-17T03:28:07.703Z,99.90
2023-01-17T03:30:35.642Z,99.90
2023-01-17T03:33:03.507Z,99.90
2023-01-17T03:35:31.467Z,99.90
2023-01-17T03:37:59.409Z,99.90
2023-01-17T03:40:27.297Z,99.90
2023-01-17T03:42:55.197Z,99.90
2023-01-17T03:45:23.082Z,99.90
2023-01-17T03:47:51.015Z,99.90
2023-01-17T03:50:18.946Z,99.90
2023-01-17T03:52:46.823Z,99.90
2023-01-17T03:55:14.705Z,99.90
2023-01-17T03:57:42.939Z,99.90
2023-01-17T04:00:11.575Z,99.90
2023-01-17T04:02:39.615Z,99.90
2023-01-17T04:05:07.709Z,99.90
2023-01-17T04:07:35.729Z,99.90
2023-01-17T04:10:03.849Z,99.90
2023-01-17T04:12:31.705Z,99.90
2023-01-17T04:14:59.705Z,99.90
2023-01-17T04:17:27.732Z,99.90
2023-01-17T04:19:55.653Z,99.90
2023-01-17T04:22:23.519Z,99.90
2023-01-17T04:24:51.738Z,99.90
2023-01-17T04:27:19.729Z,99.90
2023-01-17T04:29:48.690Z,99.90
2023-01-17T04:32:16.731Z,99.90
2023-01-17T04:34:44.625Z,99.90
2023-01-17T04:37:12.622Z,99.90
2023-01-17T04:39:40.726Z,99.90
2023-01-17T04:42:08.649Z,99.90
2023-01-17T04:44:36.535Z,99.90
2023-01-17T04:47:04.455Z,99.90
2023-01-17T04:49:32.493Z,99.90
2023-01-17T04:52:00.460Z,99.90
2023-01-17T04:54:28.506Z,99.90
2023-01-17T04:56:56.546Z,99.90
2023-01-17T04:59:24.563Z,99.90
2023-01-17T05:01:53.713Z,99.90
2023-01-17T05:04:21.641Z,99.90
2023-01-17T05:06:49.525Z,99.90
2023-01-17T05:09:17.503Z,99.90
2023-01-17T05:11:45.320Z,99.90
2023-01-17T05:14:13.359Z,99.90
2023-01-17T05:16:41.359Z,99.90
2023-01-17T05:19:09.376Z,99.90
2023-01-17T05:21:37.359Z,99.90
2023-01-17T05:24:05.402Z,99.90
2023-01-17T05:26:33.459Z,99.90
2023-01-17T05:29:01.295Z,99.90
2023-01-17T05:31:29.282Z,99.90
2023-01-17T05:33:57.170Z,99.90
2023-01-17T05:36:25.058Z,99.90
2023-01-17T05:38:53.019Z,99.90
2023-01-17T05:41:20.872Z,99.90
2023-01-17T05:43:48.833Z,99.90
2023-01-17T05:46:18.381Z,99.90
2023-01-17T05:48:46.346Z,99.90
2023-01-17T05:51:14.240Z,99.90
2023-01-17T05:53:42.137Z,99.90
2023-01-17T05:56:09.991Z,99.90
2023-01-17T05:58:37.929Z,99.90
2023-01-17T06:01:06.064Z,99.90
2023-01-17T06:03:34.007Z,99.90
2023-01-17T06:06:01.866Z,99.90
2023-01-17T06:08:29.836Z,99.90
2023-01-17T06:11:01.005Z,99.90
2023-01-17T06:13:29.020Z,99.90
2023-01-17T06:16:03.019Z,99.90
2023-01-17T06:18:31.666Z,99.90
2023-01-17T06:20:59.832Z,99.90
2023-01-17T06:23:28.605Z,99.90
2023-01-17T06:25:56.568Z,99.90
2023-01-17T06:28:24.546Z,99.90
2023-01-17T06:30:52.354Z,99.90
2023-01-17T06:33:20.304Z,99.90
2023-01-17T06:35:49.418Z,99.90
2023-01-17T06:38:17.631Z,99.90
2023-01-17T06:40:45.590Z,99.90
2023-01-17T06:43:13.642Z,99.90
2023-01-17T06:45:41.612Z,99.90
2023-01-17T06:48:09.591Z,99.90
2023-01-17T06:50:38.388Z,99.90
2023-01-17T06:53:08.073Z,99.90
2023-01-17T06:55:39.843Z,98.90
2023-01-17T06:58:09.202Z,98.00
2023-01-17T07:00:39.540Z,97.10
2023-01-17T07:03:19.599Z,95.20
2023-01-17T07:05:47.879Z,93.80
2023-01-17T07:08:17.330Z,93.80
2023-01-17T07:10:46.043Z,93.90
2023-01-17T07:13:14.370Z,93.00
2023-01-17T07:15:45.456Z,93.00
2023-01-17T07:18:13.464Z,93.30
2023-01-17T07:20:44.158Z,93.60
2023-01-17T07:23:12.101Z,93.40
2023-01-17T07:25:40.272Z,93.00
2023-01-17T07:28:08.545Z,92.80
2023-01-17T07:30:37.086Z,92.10
2023-01-17T07:33:05.866Z,92.10
2023-01-17T07:35:34.364Z,91.50
2023-01-17T07:38:02.310Z,91.00
2023-01-17T07:40:30.804Z,90.60
2023-01-17T07:43:02.414Z,90.50
2023-01-17T07:45:32.466Z,90.50
2023-01-17T07:48:00.350Z,90.40
2023-01-17T07:50:28.190Z,90.30
2023-01-17T07:52:56.750Z,90.30
2023-01-17T07:55:24.637Z,90.10
2023-01-17T07:57:52.611Z,89.80
2023-01-17T08:00:20.812Z,89.50
2023-01-17T08:02:48.821Z,89.00
2023-01-17T08:05:16.895Z,88.30
2023-01-17T08:07:44.854Z,87.80
2023-01-17T08:10:18.247Z,86.70
2023-01-17T08:12:47.306Z,85.10
2023-01-17T08:15:18.801Z,83.90
2023-01-17T08:17:47.551Z,83.20
2023-01-17T08:20:16.491Z,82.70
2023-01-17T08:22:44.455Z,82.80
2023-01-17T08:25:13.006Z,82.20
2023-01-17T08:27:41.201Z,81.30
2023-01-17T08:30:09.361Z,80.40
2023-01-17T08:32:41.059Z,79.10
2023-01-17T08:35:09.319Z,78.40
2023-01-17T08:37:38.238Z,77.40
2023-01-17T08:40:06.762Z,76.10
2023-01-17T08:42:41.315Z,75.60
2023-01-17T08:45:10.256Z,75.20
2023-01-17T08:47:38.210Z,74.90
2023-01-17T08:50:07.191Z,74.40
2023-01-17T08:52:35.421Z,74.00
2023-01-17T08:55:06.100Z,73.90
2023-01-17T08:57:34.127Z,74.30
2023-01-17T09:00:02.209Z,74.30
2023-01-17T09:02:31.564Z,74.50
2023-01-17T09:05:02.205Z,74.40
2023-01-17T09:07:30.187Z,75.30
2023-01-17T09:09:58.268Z,75.20
2023-01-17T09:12:26.497Z,75.30
2023-01-17T09:14:54.460Z,75.00
2023-01-17T09:17:22.515Z,75.00
2023-01-17T09:19:50.370Z,74.30
2023-01-17T09:22:18.276Z,73.60
2023-01-17T09:24:46.326Z,72.80
2023-01-17T09:27:14.352Z,71.80
2023-01-17T09:29:42.213Z,70.30
2023-01-17T09:32:10.214Z,69.70
2023-01-17T09:34:38.239Z,69.20
2023-01-17T09:37:06.256Z,69.40
2023-01-17T09:39:34.181Z,69.60
2023-01-17T09:42:02.076Z,68.50
2023-01-17T09:44:35.739Z,67.30
2023-01-17T09:47:14.025Z,67.20
2023-01-17T09:49:45.906Z,66.20
2023-01-17T09:52:18.871Z,64.40
2023-01-17T09:54:48.161Z,65.20
2023-01-17T09:57:28.355Z,65.90
2023-01-17T10:00:09.909Z,66.50
2023-01-17T10:02:44.254Z,66.70
2023-01-17T10:05:31.090Z,66.20
2023-01-17T10:08:17.766Z,66.30
2023-01-17T10:11:00.340Z,65.90
2023-01-17T10:13:34.147Z,66.50
2023-01-17T10:16:08.764Z,66.30
2023-01-17T10:18:36.650Z,66.00
2023-01-17T10:21:04.571Z,66.00
2023-01-17T10:23:38.615Z,64.60
2023-01-17T10:26:25.520Z,63.50
2023-01-17T10:28:55.039Z,63.00
2023-01-17T10:31:24.253Z,64.20
2023-01-17T10:33:53.295Z,64.20
2023-01-17T10:36:22.573Z,63.50
2023-01-17T10:39:10.754Z,64.10
2023-01-17T10:41:42.110Z,64.20
2023-01-17T10:44:20.181Z,65.20
2023-01-17T10:46:52.273Z,65.40
2023-01-17T10:49:21.700Z,65.50
2023-01-17T10:52:03.539Z,66.10
2023-01-17T10:54:40.659Z,65.80
2023-01-17T10:57:28.890Z,65.50
2023-01-17T10:59:58.930Z,64.90
2023-01-17T11:02:30.466Z,65.10
2023-01-17T11:05:03.868Z,64.50
2023-01-17T11:07:31.828Z,64.70
2023-01-17T11:09:59.746Z,64.70
2023-01-17T11:12:29.740Z,64.60
2023-01-17T11:14:58.948Z,65.00
2023-01-17T11:17:27.911Z,65.20
2023-01-17T11:20:06.708Z,65.40
2023-01-17T11:22:35.388Z,65.80
2023-01-17T11:25:03.759Z,66.10
2023-01-17T11:27:33.867Z,66.10
2023-01-17T11:30:07.980Z,66.50
2023-01-17T11:32:36.159Z,66.30
2023-01-17T11:35:10.382Z,65.60
2023-01-17T11:37:38.987Z,65.90
2023-01-17T11:40:19.233Z,66.70
2023-01-17T11:42:47.321Z,65.80
2023-01-17T11:45:47.689Z,65.10
2023-01-17T11:48:17.214Z,64.80
2023-01-17T11:50:54.754Z,64.30
2023-01-17T11:53:27.044Z,63.90
2023-01-17T11:56:33.599Z,64.70
2023-01-17T11:59:18.231Z,64.60
2023-01-17T12:01:50.325Z,64.30
2023-01-17T12:04:30.181Z,63.50
2023-01-17T12:07:09.892Z,63.50
2023-01-17T12:09:45.761Z,63.40
2023-01-17T12:13:01.400Z,64.10
2023-01-17T12:15:35.747Z,64.40
2023-01-17T12:18:15.731Z,64.00
2023-01-17T12:20:52.683Z,64.10
2023-01-17T12:23:20.666Z,64.50
2023-01-17T12:25:48.787Z,64.40
2023-01-17T12:28:31.563Z,64.70
2023-01-17T12:31:11.908Z,65.80
2023-01-17T12:33:39.937Z,65.00
2023-01-17T12:36:34.393Z,63.40
2023-01-17T12:39:06.993Z,62.30
2023-01-17T12:41:53.519Z,60.80
2023-01-17T12:44:34.579Z,57.30
2023-01-17T12:47:03.948Z,60.10
2023-01-17T12:49:47.406Z,60.80
2023-01-17T12:52:34.094Z,60.10
2023-01-17T12:55:14.843Z,62.70
2023-01-17T12:57:45.725Z,61.90
2023-01-17T13:00:23.573Z,63.80
2023-01-17T13:02:58.026Z,64.90
2023-01-17T13:05:30.088Z,65.10
2023-01-17T13:08:16.989Z,64.50
2023-01-17T13:10:55.462Z,62.40
2023-01-17T13:13:24.522Z,57.60
2023-01-17T13:16:03.482Z,52.60
2023-01-17T13:18:33.631Z,51.30
2023-01-17T13:21:20.178Z,54.10
2023-01-17T13:23:56.235Z,54.40
2023-01-17T13:26:36.901Z,55.60
2023-01-17T13:29:04.961Z,54.70
2023-01-17T13:31:53.406Z,56.30
2023-01-17T13:34:40.073Z,56.40
2023-01-17T13:37:11.023Z,57.90
2023-01-17T13:39:47.611Z,59.70
2023-01-17T13:42:23.522Z,60.40
2023-01-17T13:44:51.532Z,62.40
2023-01-17T13:47:19.553Z,63.70
2023-01-17T13:49:56.609Z,64.50
2023-01-17T13:52:24.583Z,65.50
2023-01-17T13:54:57.037Z,66.50
2023-01-17T13:57:33.101Z,67.30
2023-01-17T14:00:21.765Z,67.90
2023-01-17T14:02:50.649Z,69.20
2023-01-17T14:05:23.402Z,69.70
2023-01-17T14:07:59.853Z,70.30
2023-01-17T14:10:27.692Z,71.10
2023-01-17T14:12:56.025Z,71.80
2023-01-17T14:15:25.748Z,72.10
2023-01-17T14:18:04.096Z,72.50
2023-01-17T14:20:38.761Z,72.70
2023-01-17T14:23:26.931Z,73.90
2023-01-17T14:25:58.338Z,74.20
2023-01-17T14:28:31.128Z,74.90
2023-01-17T14:31:00.219Z,75.30
2023-01-17T14:33:35.876Z,75.70
2023-01-17T14:36:04.836Z,75.50
2023-01-17T14:38:34.128Z,76.30
2023-01-17T14:41:04.910Z,76.80
2023-01-17T14:43:33.527Z,78.00
2023-01-17T14:46:05.898Z,78.20
2023-01-17T14:48:34.552Z,77.50
2023-01-17T14:51:11.965Z,78.90
2023-01-17T14:53:40.231Z,78.20
2023-01-17T14:56:14.980Z,80.00
2023-01-17T14:58:43.085Z,79.60
2023-01-17T15:01:20.582Z,80.90
2023-01-17T15:03:50.748Z,81.20
2023-01-17T15:06:20.224Z,81.70
2023-01-17T15:08:48.849Z,82.20
2023-01-17T15:11:18.793Z,82.40
2023-01-17T15:13:49.788Z,83.10
2023-01-17T15:16:17.733Z,83.40
2023-01-17T15:18:45.674Z,83.90
2023-01-17T15:21:16.527Z,83.90
2023-01-17T15:23:46.153Z,84.60
2023-01-17T15:26:15.388Z,85.00
2023-01-17T15:28:45.141Z,85.90
2023-01-17T15:31:15.847Z,85.50
2023-01-17T15:33:45.620Z,85.90
2023-01-17T15:36:16.686Z,86.50
2023-01-17T15:38:49.759Z,86.70
2023-01-17T15:41:21.414Z,87.60
2023-01-17T15:43:49.615Z,87.10
2023-01-17T15:46:21.645Z,87.40
2023-01-17T15:48:51.966Z,88.60
2023-01-17T15:51:33.827Z,88.20
2023-01-17T15:54:24.217Z,88.70
2023-01-17T15:57:05.366Z,89.00
2023-01-17T15:59:44.303Z,89.10
2023-01-17T16:02:23.935Z,89.20
2023-01-17T16:04:51.963Z,89.40
2023-01-17T16:07:27.999Z,88.80
2023-01-17T16:10:02.221Z,89.40
2023-01-17T16:12:30.254Z,89.60
2023-01-17T16:15:11.122Z,89.70
2023-01-17T16:17:42.720Z,89.50
2023-01-17T16:20:16.203Z,89.20
2023-01-17T16:22:44.346Z,89.50
2023-01-17T16:25:16.304Z,88.80
2023-01-17T16:27:44.458Z,88.60
2023-01-17T16:30:15.779Z,89.20
2023-01-17T16:32:47.262Z,87.80
2023-01-17T16:35:22.085Z,88.00
2023-01-17T16:37:50.437Z,88.70
2023-01-17T16:40:22.960Z,89.20
2023-01-17T16:42:51.229Z,89.30
2023-01-17T16:45:19.342Z,89.50
2023-01-17T16:47:48.219Z,89.40
2023-01-17T16:50:18.066Z,89.70
2023-01-17T16:52:46.059Z,88.90
2023-01-17T16:55:15.105Z,89.40
2023-01-17T16:57:43.864Z,89.40
2023-01-17T17:00:12.613Z,90.00
2023-01-17T17:02:41.061Z,89.80
2023-01-17T17:05:09.664Z,90.10
2023-01-17T17:07:43.152Z,90.00
2023-01-17T17:10:11.526Z,90.00
2023-01-17T17:12:39.425Z,90.00
2023-01-17T17:15:07.677Z,89.10
2023-01-17T17:17:39.516Z,89.70
2023-01-17T17:20:15.023Z,89.70
2023-01-17T17:22:44.337Z,90.00
2023-01-17T17:25:12.447Z,89.60
2023-01-17T17:27:40.447Z,89.70
2023-01-17T17:30:08.829Z,89.80
2023-01-17T17:32:36.950Z,90.00
2023-01-17T17:35:05.426Z,89.30
2023-01-17T17:37:33.936Z,89.10
2023-01-17T17:40:01.895Z,88.60
2023-01-17T17:42:30.180Z,88.30
2023-01-17T17:44:58.137Z,88.50
2023-01-17T17:47:26.154Z,87.20
2023-01-17T17:49:54.180Z,89.30
2023-01-17T17:52:22.161Z,87.90
2023-01-17T17:54:50.074Z,88.50
2023-01-17T17:57:18.052Z,88.30
2023-01-17T17:59:45.940Z,89.40
2023-01-17T18:02:14.092Z,89.20
2023-01-17T18:04:42.012Z,89.00
2023-01-17T18:07:10.126Z,88.60
2023-01-17T18:09:39.606Z,89.60
2023-01-17T18:12:07.835Z,88.70
2023-01-17T18:14:36.485Z,89.20
2023-01-17T18:17:04.419Z,90.00
2023-01-17T18:19:35.551Z,89.70
2023-01-17T18:22:04.066Z,90.10
2023-01-17T18:24:32.145Z,90.20
2023-01-17T18:26:59.972Z,90.30
2023-01-17T18:29:27.954Z,90.50
2023-01-17T18:31:56.235Z,90.60
2023-01-17T18:34:27.312Z,91.00
2023-01-17T18:36:55.486Z,90.90
2023-01-17T18:39:24.950Z,90.40
2023-01-17T18:41:53.433Z,90.70
2023-01-17T18:44:22.555Z,90.70
2023-01-17T18:46:51.310Z,90.90
2023-01-17T18:49:19.611Z,90.50
2023-01-17T18:51:51.454Z,91.00
2023-01-17T18:54:20.197Z,90.90
2023-01-17T18:56:48.508Z,90.60
2023-01-17T18:59:18.759Z,91.20
2023-01-17T19:01:47.012Z,91.30
2023-01-17T19:04:16.191Z,91.30
2023-01-17T19:06:45.390Z,91.30
2023-01-17T19:09:14.099Z,91.50
2023-01-17T19:11:44.736Z,91.60
2023-01-17T19:14:13.231Z,91.70
2023-01-17T19:16:41.988Z,91.70
2023-01-17T19:19:11.547Z,91.90
2023-01-17T19:21:39.500Z,92.00
2023-01-17T19:24:11.150Z,92.10
2023-01-17T19:26:39.453Z,92.10
2023-01-17T19:29:07.393Z,92.10
2023-01-17T19:31:45.599Z,92.20
2023-01-17T19:34:14.989Z,92.20
2023-01-17T19:36:43.481Z,91.80
2023-01-17T19:39:12.033Z,92.30
2023-01-17T19:41:44.882Z,92.10
2023-01-17T19:44:13.917Z,92.00
2023-01-17T19:46:41.766Z,92.00
2023-01-17T19:49:09.748Z,92.40
2023-01-17T19:51:39.733Z,92.70
2023-01-17T19:54:08.674Z,92.60
2023-01-17T19:56:36.663Z,92.50
2023-01-17T19:59:04.769Z,91.80
2023-01-17T20:01:33.632Z,91.90
2023-01-17T20:04:02.079Z,92.10
2023-01-17T20:06:31.370Z,92.40
2023-01-17T20:08:59.669Z,92.50
2023-01-17T20:11:28.242Z,92.90
2023-01-17T20:13:57.926Z,92.60
2023-01-17T20:16:26.710Z,92.50
2023-01-17T20:18:54.769Z,92.80
2023-01-17T20:21:24.014Z,92.50
2023-01-17T20:23:53.227Z,93.00
2023-01-17T20:26:22.906Z,93.30
2023-01-17T20:28:51.860Z,93.60
2023-01-17T20:31:21.662Z,93.90
2023-01-17T20:33:52.671Z,93.30
2023-01-17T20:36:21.859Z,93.40
2023-01-17T20:38:50.088Z,93.80
2023-01-17T20:41:19.761Z,93.90
2023-01-17T20:43:51.874Z,94.20
2023-01-17T20:46:20.708Z,93.90
2023-01-17T20:48:49.308Z,94.40
2023-01-17T20:51:18.248Z,94.50
2023-01-17T20:53:47.145Z,94.60
2023-01-17T20:56:15.742Z,94.40
2023-01-17T20:58:44.243Z,94.70
2023-01-17T21:01:12.962Z,94.60
2023-01-17T21:03:41.002Z,94.30
2023-01-17T21:06:10.543Z,94.10
2023-01-17T21:08:39.426Z,94.20
2023-01-17T21:11:08.803Z,94.20
2023-01-17T21:13:36.829Z,94.00
2023-01-17T21:16:05.186Z,94.00
2023-01-17T21:18:33.311Z,94.00
2023-01-17T21:21:05.979Z,93.80
2023-01-17T21:23:34.511Z,94.10
2023-01-17T21:26:02.380Z,94.40
2023-01-17T21:28:31.439Z,94.00
2023-01-17T21:30:59.635Z,94.40
2023-01-17T21:33:29.729Z,94.50
2023-01-17T21:36:06.034Z,94.60
2023-01-17T21:38:34.135Z,94.60
2023-01-17T21:41:02.093Z,94.30
2023-01-17T21:43:29.956Z,94.40
2023-01-17T21:46:01.521Z,94.60
2023-01-17T21:48:29.571Z,94.50
2023-01-17T21:51:03.353Z,94.40
2023-01-17T21:53:33.379Z,94.60
2023-01-17T21:56:20.092Z,94.50
2023-01-17T21:58:49.604Z,94.20
2023-01-17T22:01:18.456Z,94.40
2023-01-17T22:03:48.704Z,94.10
2023-01-17T22:06:16.970Z,94.20
2023-01-17T22:08:45.446Z,94.70
2023-01-17T22:11:14.384Z,94.80
2023-01-17T22:13:43.033Z,94.10
2023-01-17T22:16:12.653Z,94.40
2023-01-17T22:18:41.363Z,94.80
2023-01-17T22:21:12.239Z,94.70
2023-01-17T22:23:41.169Z,94.60
2023-01-17T22:26:10.221Z,94.50
2023-01-17T22:28:38.712Z,94.20
2023-01-17T22:31:11.239Z,94.40
2023-01-17T22:33:40.192Z,94.60
2023-01-17T22:36:09.014Z,94.50
2023-01-17T22:38:37.130Z,94.40
2023-01-17T22:41:16.551Z,94.70
2023-01-17T22:43:47.030Z,94.60
2023-01-17T22:46:16.583Z,94.40
2023-01-17T22:48:45.289Z,94.60
2023-01-17T22:51:14.475Z,95.00
2023-01-17T22:53:43.328Z,94.80
2023-01-17T22:56:12.972Z,94.40
2023-01-17T22:58:45.084Z,94.00
2023-01-17T23:01:17.476Z,94.40
2023-01-17T23:03:46.284Z,94.50
2023-01-17T23:06:19.423Z,94.30
2023-01-17T23:08:48.502Z,94.80
2023-01-17T23:11:45.475Z,95.00
2023-01-17T23:14:18.097Z,95.20
2023-01-17T23:17:15.501Z,94.70
2023-01-17T23:19:44.534Z,94.70
2023-01-17T23:22:16.445Z,94.80
2023-01-17T23:24:46.186Z,95.10
2023-01-17T23:27:34.995Z,95.00
2023-01-17T23:30:07.660Z,94.90
2023-01-17T23:32:35.923Z,94.70
2023-01-17T23:35:04.080Z,94.80
2023-01-17T23:37:50.622Z,94.80
2023-01-17T23:40:19.608Z,94.80
2023-01-17T23:43:05.839Z,95.10
2023-01-17T23:45:40.229Z,94.60
2023-01-17T23:48:09.791Z,95.00
2023-01-17T23:50:38.626Z,94.90
2023-01-17T23:53:09.639Z,95.50
2023-01-17T23:55:41.473Z,95.30
2023-01-17T23:58:10.559Z,95.30
